Time;durP1;ratioP1;P1;durP2;ratioP2;P2;SDS_P1;SDS_P2;PMS_P1;PMS_P2;Temp;Humidity;BMP_temperature;BMP_pressure;BME280_temperature;BME280_humidity;BME280_pressure;Samples;Min_cycle;Max_cycle;Signal;HPM_P1;HPM_P2
2021/03/16 00:00:16;;;;;;;5.00;1.67;;;4.40;99.90;;;;;;5030086;28;20535;-69
2021/03/16 00:02:42;;;;;;;0.73;0.73;;;4.40;99.90;;;;;;5034342;28;20186;-68
2021/03/16 00:05:08;;;;;;;2.10;1.07;;;4.40;99.90;;;;;;5034432;28;20213;-71
2021/03/16 00:07:34;;;;;;;3.73;1.10;;;4.40;99.90;;;;;;5041157;28;20656;-69
2021/03/16 00:10:00;;;;;;;0.97;0.87;;;4.40;99.90;;;;;;5037784;28;20191;-68
2021/03/16 00:12:26;;;;;;;2.93;1.17;;;4.40;99.90;;;;;;5038351;28;20848;-70
2021/03/16 00:14:52;;;;;;;2.43;1.03;;;4.40;99.90;;;;;;5039906;28;20214;-66
2021/03/16 00:17:18;;;;;;;0.80;0.80;;;4.50;99.90;;;;;;5039017;28;20551;-69
2021/03/16 00:19:45;;;;;;;3.13;1.27;;;4.40;99.90;;;;;;5036633;28;20198;-69
2021/03/16 00:22:11;;;;;;;4.47;1.53;;;4.30;99.90;;;;;;5035990;28;20186;-66
2021/03/16 00:24:37;;;;;;;3.70;1.90;;;4.30;99.90;;;;;;5038031;28;20758;-69
2021/03/16 00:27:03;;;;;;;10.93;1.50;;;4.30;99.90;;;;;;5037669;28;20221;-68
2021/03/16 00:29:29;;;;;;;1.07;0.77;;;4.30;99.90;;;;;;5038265;28;20194;-68
2021/03/16 00:31:55;;;;;;;2.87;1.23;;;4.30;99.90;;;;;;5031168;28;20190;-67
2021/03/16 00:34:21;;;;;;;4.30;1.13;;;4.30;99.90;;;;;;5033093;28;20233;-69
2021/03/16 00:36:47;;;;;;;2.87;0.90;;;4.30;99.90;;;;;;5036833;28;20196;-66
2021/03/16 00:39:12;;;;;;;2.87;1.20;;;4.30;99.90;;;;;;5033773;28;20189;-69
2021/03/16 00:41:38;;;;;;;1.47;0.80;;;4.20;99.90;;;;;;5034342;28;20187;-67
2021/03/16 00:44:04;;;;;;;4.67;1.47;;;4.20;99.90;;;;;;5036928;28;20210;-69
2021/03/16 00:46:30;;;;;;;1.97;1.20;;;4.20;99.90;;;;;;5035985;28;20234;-68
2021/03/16 00:48:55;;;;;;;0.90;0.87;;;4.30;99.90;;;;;;5033911;28;20183;-67
2021/03/16 00:51:21;;;;;;;1.67;0.83;;;4.20;99.90;;;;;;5034226;28;20737;-67
2021/03/16 00:53:47;;;;;;;5.23;1.63;;;4.20;99.90;;;;;;5038871;28;20210;-69
2021/03/16 00:56:12;;;;;;;3.13;1.23;;;4.20;99.90;;;;;;5037916;28;20198;-70
2021/03/16 00:58:38;;;;;;;2.83;1.53;;;4.10;99.90;;;;;;5036320;28;20196;-68
2021/03/16 01:01:07;;;;;;;0.63;0.63;;;4.10;99.90;;;;;;5037029;28;20677;-69
2021/03/16 01:03:33;;;;;;;3.60;1.07;;;4.10;99.90;;;;;;5038449;28;20662;-68
2021/03/16 01:06:00;;;;;;;2.53;0.80;;;4.00;99.90;;;;;;5034628;28;20722;-66
2021/03/16 01:08:25;;;;;;;4.57;1.60;;;4.00;99.90;;;;;;5040440;28;20191;-68
2021/03/16 01:10:52;;;;;;;2.70;1.10;;;4.00;99.90;;;;;;5036589;28;20201;-65
2021/03/16 01:13:19;;;;;;;4.10;2.07;;;3.90;99.90;;;;;;5064811;28;20209;-69
2021/03/16 01:15:45;;;;;;;2.57;1.50;;;3.90;99.90;;;;;;5036105;28;20193;-67
2021/03/16 01:18:11;;;;;;;1.73;1.20;;;3.90;99.90;;;;;;5037129;28;20662;-69
2021/03/16 01:20:37;;;;;;;2.37;1.03;;;3.80;99.90;;;;;;5033062;28;20607;-68
2021/03/16 01:23:03;;;;;;;1.47;1.00;;;3.80;99.90;;;;;;5034678;28;20228;-67
2021/03/16 01:25:29;;;;;;;2.20;1.00;;;3.80;99.90;;;;;;5034992;28;20670;-68
2021/03/16 01:27:55;;;;;;;1.47;1.00;;;3.80;99.90;;;;;;5037428;28;20189;-69
2021/03/16 01:30:22;;;;;;;1.90;0.90;;;3.80;99.90;;;;;;5037542;28;20236;-69
2021/03/16 01:32:47;;;;;;;1.97;1.17;;;3.80;99.90;;;;;;5037233;28;20600;-68
2021/03/16 01:35:15;;;;;;;2.63;1.57;;;3.80;99.90;;;;;;5035282;28;20241;-69
2021/03/16 01:37:42;;;;;;;1.30;0.80;;;3.80;99.90;;;;;;5036426;28;20575;-67
2021/03/16 01:40:13;;;;;;;3.53;1.30;;;3.70;99.90;;;;;;5036031;28;20724;-68
2021/03/16 01:42:39;;;;;;;1.77;0.90;;;3.80;99.90;;;;;;5032289;28;20281;-69
2021/03/16 01:45:10;;;;;;;1.47;1.00;;;3.80;99.90;;;;;;5032798;28;20241;-70
2021/03/16 01:47:38;;;;;;;0.97;0.80;;;3.80;99.90;;;;;;5035909;28;20899;-70
2021/03/16 01:50:05;;;;;;;1.10;1.00;;;3.70;99.90;;;;;;5037952;28;20183;-69
2021/03/16 01:52:31;;;;;;;1.37;0.93;;;3.70;99.90;;;;;;5032224;28;20225;-70
2021/03/16 01:54:59;;;;;;;2.40;0.90;;;3.70;99.90;;;;;;5035620;28;20206;-71
2021/03/16 01:57:27;;;;;;;1.73;1.00;;;3.60;99.90;;;;;;5030079;28;20202;-68
2021/03/16 01:59:52;;;;;;;3.93;1.77;;;3.70;99.90;;;;;;5029378;28;20183;-67
2021/03/16 02:02:18;;;;;;;2.40;1.50;;;3.60;99.90;;;;;;5028129;28;20210;-65
2021/03/16 02:04:44;;;;;;;5.23;1.20;;;3.60;99.90;;;;;;5030282;28;20730;-68
2021/03/16 02:07:18;;;;;;;1.50;1.33;;;3.60;99.90;;;;;;5024923;28;20253;-70
2021/03/16 02:09:46;;;;;;;4.00;0.90;;;3.70;99.90;;;;;;5026164;28;20902;-69
2021/03/16 02:12:27;;;;;;;1.57;1.47;;;3.70;99.90;;;;;;5029362;28;20183;-69
2021/03/16 02:15:07;;;;;;;13.77;1.60;;;3.70;99.90;;;;;;5025374;28;20719;-66
2021/03/16 02:17:35;;;;;;;0.80;0.80;;;3.70;99.90;;;;;;5031476;28;20194;-70
2021/03/16 02:20:42;;;;;;;1.73;0.57;;;3.70;99.90;;;;;;5028100;28;20233;-66
2021/03/16 02:23:10;;;;;;;2.03;0.77;;;3.70;99.90;;;;;;5032601;28;20182;-69
2021/03/16 02:25:54;;;;;;;1.37;0.50;;;3.70;99.90;;;;;;5029827;28;20740;-68
2021/03/16 02:28:57;;;;;;;0.80;0.80;;;3.70;99.90;;;;;;5033122;28;20183;-66
2021/03/16 02:31:26;;;;;;;7.30;1.63;;;3.70;99.90;;;;;;5024619;28;20279;-68
2021/03/16 02:33:52;;;;;;;0.80;0.80;;;3.60;99.90;;;;;;5024153;28;20199;-68
2021/03/16 02:36:19;;;;;;;1.27;0.80;;;3.60;99.90;;;;;;5027293;28;20272;-69
2021/03/16 02:38:48;;;;;;;1.20;1.00;;;3.60;99.90;;;;;;5038123;28;20181;-67
2021/03/16 02:41:17;;;;;;;1.00;0.90;;;3.60;99.90;;;;;;5029819;28;20195;-69
2021/03/16 02:43:44;;;;;;;1.00;0.97;;;3.60;99.90;;;;;;5030672;28;20204;-69
2021/03/16 02:46:10;;;;;;;4.10;1.27;;;3.60;99.90;;;;;;5030297;28;20218;-69
2021/03/16 02:48:37;;;;;;;2.57;1.10;;;3.50;99.90;;;;;;5024971;28;20549;-69
2021/03/16 02:51:04;;;;;;;1.50;1.20;;;3.50;99.90;;;;;;5023724;28;20179;-67
2021/03/16 02:53:32;;;;;;;1.07;0.50;;;3.50;99.90;;;;;;5027556;28;20576;-70
2021/03/16 02:55:59;;;;;;;4.83;1.43;;;3.50;99.90;;;;;;5035469;28;20651;-69
2021/03/16 02:58:26;;;;;;;0.83;0.83;;;3.50;99.90;;;;;;5035258;28;20360;-66
2021/03/16 03:00:52;;;;;;;1.33;1.00;;;3.50;99.90;;;;;;5022820;28;20187;-68
2021/03/16 03:03:21;;;;;;;2.17;1.10;;;3.50;99.90;;;;;;5031790;28;20677;-69
2021/03/16 03:05:48;;;;;;;2.20;1.53;;;3.40;99.90;;;;;;5028863;28;20252;-67
2021/03/16 03:08:14;;;;;;;1.00;0.67;;;3.40;99.90;;;;;;5028012;28;20660;-70
2021/03/16 03:10:40;;;;;;;0.83;0.83;;;3.30;99.90;;;;;;5027968;28;20584;-69
2021/03/16 03:13:06;;;;;;;1.60;0.80;;;3.30;99.90;;;;;;5023756;28;20294;-66
2021/03/16 03:15:31;;;;;;;1.87;0.83;;;3.30;99.90;;;;;;5029500;28;20243;-68
2021/03/16 03:17:57;;;;;;;2.10;1.17;;;3.30;99.90;;;;;;5026248;28;20560;-67
2021/03/16 03:20:23;;;;;;;4.57;0.97;;;3.20;99.90;;;;;;5034504;28;20673;-67
2021/03/16 03:22:55;;;;;;;5.90;1.10;;;3.20;99.90;;;;;;5027038;28;20183;-68
2021/03/16 03:25:28;;;;;;;1.03;0.93;;;3.20;99.90;;;;;;5027322;28;20214;-68
2021/03/16 03:28:00;;;;;;;1.97;1.70;;;3.10;99.90;;;;;;5026006;28;20253;-70
2021/03/16 03:30:27;;;;;;;1.27;0.83;;;3.00;99.90;;;;;;5031375;28;20198;-67
2021/03/16 03:32:58;;;;;;;1.40;0.90;;;3.00;99.90;;;;;;5027884;28;20607;-67
2021/03/16 03:35:26;;;;;;;0.67;0.67;;;2.90;99.90;;;;;;5025801;28;20233;-69
2021/03/16 03:37:52;;;;;;;2.90;0.87;;;3.00;99.90;;;;;;5028200;28;20285;-67
2021/03/16 03:40:20;;;;;;;1.33;0.73;;;3.00;99.90;;;;;;5023704;28;20261;-70
2021/03/16 03:42:46;;;;;;;3.10;0.73;;;3.00;99.90;;;;;;5026089;28;20191;-68
2021/03/16 03:45:13;;;;;;;1.40;0.70;;;3.00;99.90;;;;;;5027918;28;20225;-69
2021/03/16 03:47:41;;;;;;;2.43;0.67;;;3.10;99.90;;;;;;5028770;28;20215;-70
2021/03/16 03:50:08;;;;;;;4.60;1.97;;;3.00;99.90;;;;;;5029292;28;20183;-66
2021/03/16 03:52:35;;;;;;;1.50;1.03;;;3.00;99.90;;;;;;5030163;28;20190;-68
2021/03/16 03:55:01;;;;;;;1.17;0.50;;;3.00;99.90;;;;;;5023697;28;20685;-66
2021/03/16 03:57:27;;;;;;;0.53;0.53;;;3.00;99.90;;;;;;5031174;28;20307;-70
2021/03/16 03:59:54;;;;;;;1.20;0.83;;;2.90;99.90;;;;;;5025428;28;20289;-69
2021/03/16 04:02:20;;;;;;;0.60;0.60;;;2.90;99.90;;;;;;5033039;28;20197;-68
2021/03/16 04:04:47;;;;;;;2.10;0.70;;;2.90;99.90;;;;;;5027964;28;20214;-66
2021/03/16 04:07:15;;;;;;;1.30;0.60;;;2.90;99.90;;;;;;5030686;28;20218;-69
2021/03/16 04:09:41;;;;;;;1.37;1.00;;;2.90;99.90;;;;;;5028146;28;20559;-68
2021/03/16 04:12:08;;;;;;;5.23;1.50;;;2.90;99.90;;;;;;5027048;28;20186;-69
2021/03/16 04:14:35;;;;;;;0.63;0.63;;;2.80;99.90;;;;;;5023072;28;20211;-70
2021/03/16 04:17:01;;;;;;;3.50;1.30;;;2.80;99.90;;;;;;5027974;28;20187;-69
2021/03/16 04:19:27;;;;;;;2.83;1.23;;;2.80;99.90;;;;;;5027853;28;20273;-69
2021/03/16 04:21:54;;;;;;;1.67;1.00;;;2.70;99.90;;;;;;5033493;28;20274;-69
2021/03/16 04:24:21;;;;;;;3.40;0.87;;;2.80;99.90;;;;;;5028516;28;20497;-68
2021/03/16 04:26:46;;;;;;;2.00;1.03;;;2.80;99.90;;;;;;5032687;28;20678;-69
2021/03/16 04:29:12;;;;;;;3.07;0.83;;;2.70;99.90;;;;;;5030562;28;20193;-68
2021/03/16 04:31:38;;;;;;;1.87;0.83;;;2.80;99.90;;;;;;5020927;28;20635;-67
2021/03/16 04:34:03;;;;;;;1.07;0.97;;;2.80;99.90;;;;;;5021386;28;20211;-67
2021/03/16 04:36:29;;;;;;;1.13;1.00;;;2.80;99.90;;;;;;5022602;28;20195;-66
2021/03/16 04:38:54;;;;;;;3.53;1.43;;;2.80;99.90;;;;;;5029363;28;20611;-68
2021/03/16 04:41:20;;;;;;;2.50;1.20;;;2.70;99.90;;;;;;5025765;28;20218;-66
2021/03/16 04:43:45;;;;;;;2.90;1.50;;;2.70;99.90;;;;;;5022323;28;20264;-68
2021/03/16 04:46:12;;;;;;;3.40;1.67;;;2.70;99.90;;;;;;5026243;28;20229;-67
2021/03/16 04:48:39;;;;;;;2.07;1.80;;;2.60;99.90;;;;;;5026744;28;20576;-67
2021/03/16 04:51:05;;;;;;;4.90;1.67;;;2.60;99.90;;;;;;5026667;28;20914;-69
2021/03/16 04:53:30;;;;;;;1.67;1.17;;;2.50;99.90;;;;;;5033805;28;20293;-69
2021/03/16 04:55:56;;;;;;;1.80;1.43;;;2.50;99.90;;;;;;5030306;28;20193;-68
2021/03/16 04:58:22;;;;;;;1.93;1.10;;;2.50;99.90;;;;;;5035187;28;20191;-68
2021/03/16 05:00:47;;;;;;;2.40;1.27;;;2.50;99.90;;;;;;5036217;28;20301;-68
2021/03/16 05:03:13;;;;;;;1.70;1.37;;;2.50;99.90;;;;;;5036174;28;20257;-70
2021/03/16 05:05:39;;;;;;;2.53;1.17;;;2.60;99.90;;;;;;5030030;28;20297;-67
2021/03/16 05:08:05;;;;;;;1.23;1.13;;;2.50;99.90;;;;;;5035665;28;20273;-68
2021/03/16 05:10:30;;;;;;;2.83;1.33;;;2.50;99.90;;;;;;5040455;28;20206;-69
2021/03/16 05:12:56;;;;;;;3.53;2.43;;;2.60;99.90;;;;;;5032268;28;20195;-70
2021/03/16 05:15:21;;;;;;;5.40;2.27;;;2.70;99.90;;;;;;5032466;28;20195;-70
2021/03/16 05:17:47;;;;;;;1.90;1.70;;;2.70;99.90;;;;;;5039707;28;20540;-69
2021/03/16 05:20:13;;;;;;;2.30;1.80;;;2.70;99.90;;;;;;5028402;28;20237;-66
2021/03/16 05:22:38;;;;;;;1.73;1.63;;;2.70;99.90;;;;;;5032313;28;20624;-69
2021/03/16 05:25:06;;;;;;;2.13;1.67;;;2.70;99.90;;;;;;5028790;28;20203;-67
2021/03/16 05:27:32;;;;;;;2.50;1.83;;;2.70;99.90;;;;;;5039212;28;20209;-67
2021/03/16 05:29:58;;;;;;;2.60;1.70;;;2.70;99.90;;;;;;5029456;28;20648;-70
2021/03/16 05:32:23;;;;;;;2.90;1.67;;;2.80;99.90;;;;;;5033802;28;20193;-67
2021/03/16 05:34:49;;;;;;;2.27;1.83;;;2.80;99.90;;;;;;5030419;28;20207;-67
2021/03/16 05:37:15;;;;;;;3.20;1.90;;;2.80;99.90;;;;;;5030645;28;20198;-69
2021/03/16 05:39:40;;;;;;;3.87;2.20;;;2.80;99.90;;;;;;5031763;28;20550;-67
2021/03/16 05:42:06;;;;;;;3.03;2.73;;;2.80;99.90;;;;;;5036091;28;20554;-68
2021/03/16 05:44:33;;;;;;;2.37;1.50;;;2.70;99.90;;;;;;5034104;28;20240;-66
2021/03/16 05:47:01;;;;;;;2.07;1.87;;;2.70;99.90;;;;;;5032912;28;20255;-69
2021/03/16 05:49:28;;;;;;;2.90;2.23;;;2.80;99.90;;;;;;5024865;28;20187;-69
2021/03/16 05:51:54;;;;;;;4.50;2.07;;;2.80;99.90;;;;;;5030095;28;20654;-66
2021/03/16 05:54:20;;;;;;;2.43;2.23;;;2.90;99.90;;;;;;5025578;28;20206;-69
2021/03/16 05:56:46;;;;;;;4.53;2.57;;;2.90;99.90;;;;;;5023597;28;20195;-68
2021/03/16 05:59:12;;;;;;;6.00;2.37;;;3.00;99.90;;;;;;5034732;28;20777;-67
2021/03/16 06:01:37;;;;;;;2.83;2.20;;;3.00;99.90;;;;;;5034422;28;20647;-67
2021/03/16 06:04:03;;;;;;;2.50;2.10;;;3.00;99.90;;;;;;5034802;28;20689;-70
2021/03/16 06:06:32;;;;;;;3.43;1.87;;;3.00;99.90;;;;;;5027765;28;20206;-68
2021/03/16 06:08:58;;;;;;;2.97;2.07;;;3.10;99.90;;;;;;5027566;28;20328;-69
2021/03/16 06:11:27;;;;;;;4.03;2.03;;;3.10;99.90;;;;;;5027292;28;20270;-69
2021/03/16 06:13:54;;;;;;;5.13;2.27;;;3.10;99.90;;;;;;5027414;28;20444;-68
2021/03/16 06:16:22;;;;;;;1.63;1.50;;;3.10;99.90;;;;;;5032870;28;20650;-69
2021/03/16 06:18:49;;;;;;;2.93;1.70;;;3.10;99.90;;;;;;5028573;28;20545;-68
2021/03/16 06:21:20;;;;;;;3.23;2.10;;;3.20;99.90;;;;;;5034806;28;20661;-69
2021/03/16 06:23:58;;;;;;;5.30;2.10;;;3.10;99.90;;;;;;5035004;28;20269;-69
2021/03/16 06:26:25;;;;;;;2.30;1.90;;;3.10;99.90;;;;;;5063272;28;20219;-67
2021/03/16 06:28:52;;;;;;;4.17;2.43;;;3.10;99.90;;;;;;5034388;28;20294;-69
2021/03/16 06:31:25;;;;;;;4.17;1.77;;;3.20;99.90;;;;;;5030045;28;20236;-65
2021/03/16 06:33:51;;;;;;;2.73;1.93;;;3.20;99.90;;;;;;5024863;28;20257;-68
2021/03/16 06:36:17;;;;;;;2.53;2.07;;;3.30;99.90;;;;;;5035445;28;20182;-70
2021/03/16 06:38:43;;;;;;;6.30;2.10;;;3.30;99.90;;;;;;5029132;28;20561;-69
2021/03/16 06:41:20;;;;;;;3.23;2.30;;;3.30;99.90;;;;;;5031507;28;20190;-68
2021/03/16 06:43:53;;;;;;;3.00;2.20;;;3.30;99.90;;;;;;5029831;28;20426;-71
2021/03/16 06:46:32;;;;;;;3.10;2.20;;;3.40;99.90;;;;;;5035834;28;20568;-68
2021/03/16 06:48:58;;;;;;;2.73;1.97;;;3.40;99.90;;;;;;5037375;28;20646;-66
2021/03/16 06:51:28;;;;;;;2.30;1.90;;;3.40;99.90;;;;;;5030953;28;20185;-68
2021/03/16 06:54:05;;;;;;;5.23;2.77;;;3.40;99.90;;;;;;5037864;28;20198;-68
2021/03/16 06:56:31;;;;;;;3.10;1.87;;;3.40;99.90;;;;;;5039693;28;20388;-67
2021/03/16 06:58:57;;;;;;;4.67;2.13;;;3.40;99.90;;;;;;5035260;28;20182;-69
2021/03/16 07:01:24;;;;;;;2.93;1.97;;;3.50;99.90;;;;;;5032664;28;20204;-70
2021/03/16 07:03:50;;;;;;;3.93;2.30;;;3.50;99.90;;;;;;5034397;28;20209;-68
2021/03/16 07:06:18;;;;;;;4.13;2.20;;;3.60;99.90;;;;;;5034536;28;20210;-67
2021/03/16 07:08:45;;;;;;;3.03;2.20;;;3.60;99.90;;;;;;5035037;28;20187;-67
2021/03/16 07:11:14;;;;;;;7.23;2.87;;;3.60;99.90;;;;;;5036346;28;20255;-68
2021/03/16 07:13:41;;;;;;;3.10;2.37;;;3.60;99.90;;;;;;5035808;28;20198;-66
2021/03/16 07:16:08;;;;;;;3.00;2.20;;;3.60;99.90;;;;;;5035616;28;20614;-68
2021/03/16 07:18:45;;;;;;;6.93;2.27;;;3.60;99.90;;;;;;5035916;28;20640;-68
2021/03/16 07:21:30;;;;;;;3.37;2.77;;;3.80;99.90;;;;;;5035253;28;20182;-68
2021/03/16 07:24:10;;;;;;;3.43;2.67;;;3.70;99.90;;;;;;5032242;28;20233;-67
2021/03/16 07:26:37;;;;;;;6.97;2.90;;;3.80;99.90;;;;;;5025370;28;20206;-68
2021/03/16 07:29:07;;;;;;;4.83;2.60;;;3.90;99.90;;;;;;5027127;28;20198;-70
2021/03/16 07:31:35;;;;;;;4.33;2.97;;;3.80;99.90;;;;;;5033108;28;20222;-67
2021/03/16 07:34:07;;;;;;;7.83;2.57;;;3.90;99.90;;;;;;5028953;28;20221;-68
2021/03/16 07:36:35;;;;;;;3.60;2.60;;;4.00;99.90;;;;;;5033878;28;20657;-71
2021/03/16 07:39:04;;;;;;;3.47;2.47;;;4.00;99.90;;;;;;5029446;28;20182;-69
2021/03/16 07:41:31;;;;;;;3.03;1.83;;;4.00;99.90;;;;;;5033787;28;20200;-67
2021/03/16 07:44:05;;;;;;;5.00;2.57;;;4.10;99.90;;;;;;5032871;28;20210;-66
2021/03/16 07:46:43;;;;;;;4.90;2.00;;;4.20;99.90;;;;;;5027077;28;20202;-67
2021/03/16 07:49:11;;;;;;;2.20;1.77;;;4.30;99.90;;;;;;5027360;28;20637;-67
2021/03/16 07:51:39;;;;;;;2.90;2.10;;;4.20;99.90;;;;;;5031493;28;20700;-66
2021/03/16 07:54:06;;;;;;;2.53;1.70;;;4.20;99.90;;;;;;5030735;28;20209;-68
2021/03/16 07:56:34;;;;;;;2.50;1.30;;;4.30;99.90;;;;;;5030562;28;20187;-69
2021/03/16 07:59:01;;;;;;;3.03;1.47;;;4.30;99.90;;;;;;5030494;28;20182;-68
2021/03/16 08:01:27;;;;;;;1.73;1.60;;;4.50;99.90;;;;;;5022514;28;20191;-68
2021/03/16 08:04:10;;;;;;;1.63;1.20;;;4.40;99.90;;;;;;5027274;28;20220;-69
2021/03/16 08:06:36;;;;;;;4.23;2.50;;;4.50;99.90;;;;;;5030505;28;20210;-70
2021/03/16 08:09:06;;;;;;;2.13;1.37;;;4.40;99.90;;;;;;5026094;28;20187;-68
2021/03/16 08:11:36;;;;;;;1.90;1.30;;;4.50;99.90;;;;;;5033884;28;20301;-68
2021/03/16 08:14:04;;;;;;;2.50;2.00;;;4.60;99.90;;;;;;5035409;28;20194;-68
2021/03/16 08:16:43;;;;;;;3.20;1.47;;;4.60;99.90;;;;;;5032010;28;20655;-70
2021/03/16 08:19:13;;;;;;;2.93;1.40;;;4.60;99.90;;;;;;5030821;28;20236;-69
2021/03/16 08:21:43;;;;;;;3.47;1.60;;;4.70;99.90;;;;;;5034190;28;20186;-70
2021/03/16 08:24:12;;;;;;;4.97;1.70;;;4.60;99.90;;;;;;5039731;28;20206;-66
2021/03/16 08:26:46;;;;;;;4.53;1.47;;;4.70;99.90;;;;;;5040965;28;20198;-68
2021/03/16 08:29:12;;;;;;;2.23;1.30;;;4.70;99.90;;;;;;5039827;28;20593;-70
2021/03/16 08:31:38;;;;;;;4.20;1.53;;;4.70;99.90;;;;;;5039331;28;20179;-69
2021/03/16 08:34:07;;;;;;;2.47;1.87;;;4.70;99.90;;;;;;5034874;28;20251;-70
2021/03/16 08:36:41;;;;;;;1.70;1.50;;;4.70;99.90;;;;;;5040500;28;20957;-67
2021/03/16 08:39:07;;;;;;;2.00;1.50;;;4.70;99.90;;;;;;5032955;28;20178;-69
2021/03/16 08:41:33;;;;;;;2.20;1.57;;;4.80;99.90;;;;;;5034003;28;20262;-71
2021/03/16 08:43:58;;;;;;;2.67;1.73;;;4.80;99.90;;;;;;5035929;28;20206;-66
2021/03/16 08:46:35;;;;;;;6.70;1.97;;;4.90;99.90;;;;;;5038930;28;20573;-69
2021/03/16 08:49:01;;;;;;;4.40;1.23;;;5.00;99.90;;;;;;5072291;28;20553;-70
2021/03/16 08:51:27;;;;;;;4.27;1.67;;;5.10;99.90;;;;;;5028803;28;20270;-70
2021/03/16 08:53:54;;;;;;;6.63;1.93;;;5.10;99.90;;;;;;5036335;28;20212;-68
2021/03/16 08:56:23;;;;;;;1.30;1.10;;;5.00;99.90;;;;;;5033777;28;20179;-69
2021/03/16 08:58:50;;;;;;;1.60;1.50;;;5.00;99.90;;;;;;5032719;28;20236;-66
2021/03/16 09:01:29;;;;;;;6.80;2.57;;;5.20;99.90;;;;;;5031685;28;20236;-69
2021/03/16 09:03:57;;;;;;;3.57;1.83;;;5.20;99.90;;;;;;5026376;28;20207;-70
2021/03/16 09:06:23;;;;;;;1.90;1.80;;;5.30;99.90;;;;;;5035473;28;20246;-70
2021/03/16 09:08:50;;;;;;;4.07;1.83;;;5.30;99.90;;;;;;5031466;28;20265;-68
2021/03/16 09:11:41;;;;;;;6.23;2.27;;;5.30;99.90;;;;;;5033987;28;20170;-67
2021/03/16 09:14:17;;;;;;;1.80;1.13;;;5.40;99.90;;;;;;5038213;28;20210;-71
2021/03/16 09:16:47;;;;;;;4.43;1.70;;;5.30;99.90;;;;;;5038065;28;20269;-67
2021/03/16 09:19:16;;;;;;;3.97;0.73;;;5.40;99.90;;;;;;5036107;28;20182;-69
2021/03/16 09:22:10;;;;;;;4.40;1.10;;;5.50;99.90;;;;;;5030267;28;20187;-68
2021/03/16 09:24:40;;;;;;;4.63;1.73;;;5.60;99.90;;;;;;5034009;28;20219;-67
2021/03/16 09:27:06;;;;;;;2.73;1.00;;;5.70;99.90;;;;;;5033500;28;20210;-68
2021/03/16 09:29:35;;;;;;;14.73;1.93;;;5.70;99.90;;;;;;5035012;28;20183;-67
2021/03/16 09:32:04;;;;;;;0.63;0.63;;;5.90;99.90;;;;;;5035497;28;20182;-70
2021/03/16 09:34:30;;;;;;;1.43;0.90;;;5.90;99.90;;;;;;5031363;28;20210;-69
2021/03/16 09:37:07;;;;;;;0.70;0.70;;;5.90;99.90;;;;;;5032997;28;20438;-71
2021/03/16 09:39:33;;;;;;;3.13;1.27;;;6.10;99.90;;;;;;5030929;28;20193;-70
2021/03/16 09:42:00;;;;;;;3.83;1.40;;;6.30;99.90;;;;;;5036878;28;20182;-70
2021/03/16 09:44:39;;;;;;;5.73;1.03;;;6.40;99.90;;;;;;5039187;28;20230;-70
2021/03/16 09:47:06;;;;;;;0.40;0.40;;;6.50;99.90;;;;;;5030813;28;20698;-69
2021/03/16 09:49:33;;;;;;;3.40;1.17;;;6.50;99.90;;;;;;5034857;28;20255;-66
2021/03/16 09:52:10;;;;;;;3.63;1.50;;;6.50;99.90;;;;;;5032235;28;20189;-70
2021/03/16 09:54:45;;;;;;;3.03;1.33;;;6.40;99.90;;;;;;5035292;28;20198;-70
2021/03/16 09:57:13;;;;;;;0.90;0.40;;;6.40;99.90;;;;;;5028894;28;20229;-69
2021/03/16 09:59:44;;;;;;;1.40;0.63;;;6.40;99.90;;;;;;5032502;28;20218;-70
2021/03/16 10:02:10;;;;;;;1.07;0.97;;;6.60;99.90;;;;;;5033159;28;20179;-68
2021/03/16 10:04:49;;;;;;;3.63;1.13;;;6.80;99.90;;;;;;5028277;28;20271;-69
2021/03/16 10:07:32;;;;;;;0.60;0.60;;;6.90;99.90;;;;;;5039988;28;20214;-67
2021/03/16 10:10:11;;;;;;;2.17;0.97;;;7.10;99.90;;;;;;5036100;28;20551;-70
2021/03/16 10:12:38;;;;;;;0.50;0.50;;;6.90;99.90;;;;;;5033265;28;20882;-70
2021/03/16 10:15:06;;;;;;;3.60;1.10;;;7.00;99.90;;;;;;5035685;28;20678;-69
2021/03/16 10:17:33;;;;;;;2.60;1.20;;;7.20;99.90;;;;;;5032150;28;20183;-71
2021/03/16 10:20:07;;;;;;;0.90;0.60;;;7.20;99.90;;;;;;5028216;28;20222;-69
2021/03/16 10:22:35;;;;;;;5.70;1.20;;;7.10;99.90;;;;;;5037258;28;20268;-68
2021/03/16 10:25:04;;;;;;;2.47;0.57;;;7.00;99.90;;;;;;5034121;28;20769;-70
2021/03/16 10:27:31;;;;;;;2.43;0.80;;;7.10;99.90;;;;;;5032960;28;20215;-68
2021/03/16 10:30:04;;;;;;;1.23;0.50;;;7.10;99.90;;;;;;5034558;28;20543;-67
2021/03/16 10:32:30;;;;;;;1.03;0.50;;;7.20;99.90;;;;;;5033645;28;20655;-68
2021/03/16 10:34:56;;;;;;;3.40;1.23;;;7.20;99.90;;;;;;5031459;28;20213;-70
2021/03/16 10:37:24;;;;;;;0.80;0.60;;;7.40;99.90;;;;;;5037253;28;20313;-68
2021/03/16 10:39:50;;;;;;;2.87;1.27;;;7.70;99.90;;;;;;5034252;28;20209;-70
2021/03/16 10:42:16;;;;;;;3.00;1.30;;;7.50;99.90;;;;;;5031810;28;20491;-69
2021/03/16 10:44:42;;;;;;;0.77;0.53;;;7.60;99.90;;;;;;5032110;28;20214;-70
2021/03/16 10:47:08;;;;;;;2.40;0.50;;;7.60;99.90;;;;;;5036746;28;20248;-70
2021/03/16 10:49:35;;;;;;;1.00;0.87;;;7.60;99.90;;;;;;5063545;28;20221;-70
2021/03/16 10:52:02;;;;;;;0.67;0.67;;;7.50;99.90;;;;;;5026907;28;20213;-66
2021/03/16 10:54:28;;;;;;;1.93;1.20;;;7.70;99.90;;;;;;5033927;28;20202;-69
2021/03/16 10:56:56;;;;;;;2.27;1.03;;;7.80;99.90;;;;;;5033815;28;20194;-71
2021/03/16 10:59:22;;;;;;;0.80;0.77;;;7.80;99.90;;;;;;5027616;28;20270;-68
2021/03/16 11:01:51;;;;;;;1.70;1.07;;;7.90;99.90;;;;;;5031866;28;20187;-70
2021/03/16 11:04:18;;;;;;;3.37;0.50;;;7.90;99.90;;;;;;5027360;28;20210;-69
2021/03/16 11:06:45;;;;;;;2.30;0.70;;;7.90;99.90;;;;;;5032154;28;20202;-68
2021/03/16 11:09:12;;;;;;;1.23;0.67;;;7.80;99.90;;;;;;5033060;28;20185;-69
2021/03/16 11:11:37;;;;;;;3.00;0.90;;;7.80;99.90;;;;;;5026843;28;20593;-70
2021/03/16 11:14:03;;;;;;;0.87;0.80;;;7.90;99.90;;;;;;5028190;28;20229;-67
2021/03/16 11:16:28;;;;;;;1.43;1.20;;;8.00;99.90;;;;;;5037118;28;20375;-67
2021/03/16 11:18:54;;;;;;;1.90;0.77;;;8.10;99.90;;;;;;5030909;28;20191;-67
2021/03/16 11:21:20;;;;;;;2.20;1.23;;;8.40;99.90;;;;;;5029127;28;20197;-67
2021/03/16 11:23:45;;;;;;;0.77;0.77;;;8.50;99.90;;;;;;5023643;28;20674;-70
2021/03/16 11:26:11;;;;;;;0.50;0.43;;;8.50;99.90;;;;;;5023548;28;20313;-67
2021/03/16 11:28:37;;;;;;;0.87;0.87;;;8.50;99.90;;;;;;5023964;28;20210;-69
2021/03/16 11:31:02;;;;;;;1.43;1.03;;;8.30;99.90;;;;;;5022508;28;20191;-68
2021/03/16 11:33:28;;;;;;;1.73;1.00;;;8.30;99.90;;;;;;5030913;28;21013;-66
2021/03/16 11:35:54;;;;;;;0.90;0.80;;;8.30;99.90;;;;;;5034489;28;20680;-68
2021/03/16 11:38:19;;;;;;;1.70;1.37;;;8.30;99.90;;;;;;5032976;28;20187;-70
2021/03/16 11:40:45;;;;;;;1.67;0.57;;;8.40;99.90;;;;;;5027694;28;20190;-68
2021/03/16 11:43:11;;;;;;;1.00;0.90;;;8.40;99.90;;;;;;5022611;28;20653;-70
2021/03/16 11:45:39;;;;;;;0.50;0.50;;;8.30;99.90;;;;;;5026194;28;20221;-67
2021/03/16 11:48:05;;;;;;;1.23;0.60;;;8.30;99.90;;;;;;5025955;28;20311;-67
2021/03/16 11:50:31;;;;;;;2.10;1.20;;;8.10;99.90;;;;;;5021862;28;20190;-70
2021/03/16 11:52:56;;;;;;;0.40;0.40;;;8.20;99.90;;;;;;5023225;28;20195;-68
2021/03/16 11:55:22;;;;;;;0.87;0.77;;;8.20;99.90;;;;;;5022499;28;20186;-69
2021/03/16 11:57:48;;;;;;;1.13;0.60;;;8.20;99.90;;;;;;5030103;28;20689;-70
2021/03/16 12:00:15;;;;;;;1.00;0.80;;;8.30;99.90;;;;;;5031953;28;20190;-69
2021/03/16 12:02:41;;;;;;;0.80;0.80;;;8.80;99.90;;;;;;5023056;28;20182;-69
2021/03/16 12:05:07;;;;;;;4.70;1.27;;;9.00;99.90;;;;;;5023055;28;20207;-70
2021/03/16 12:07:33;;;;;;;0.40;0.40;;;9.30;99.90;;;;;;5022868;28;20225;-70
2021/03/16 12:09:59;;;;;;;1.70;0.70;;;9.50;99.90;;;;;;5027335;28;20187;-68
2021/03/16 12:12:24;;;;;;;1.00;0.90;;;9.50;99.90;;;;;;5022315;28;20190;-71
2021/03/16 12:14:50;;;;;;;1.17;0.90;;;9.40;99.90;;;;;;5022814;28;20236;-68
2021/03/16 12:17:16;;;;;;;2.20;0.80;;;9.50;99.90;;;;;;5023578;28;20186;-69
2021/03/16 12:19:41;;;;;;;1.70;1.10;;;9.20;99.90;;;;;;5027167;28;20212;-68
2021/03/16 12:22:07;;;;;;;0.87;0.50;;;8.90;99.90;;;;;;5023091;28;20650;-69
2021/03/16 12:24:33;;;;;;;0.80;0.80;;;8.60;99.90;;;;;;5024690;28;20781;-69
2021/03/16 12:26:59;;;;;;;1.40;0.50;;;8.70;99.90;;;;;;5024936;28;21132;-67
2021/03/16 12:29:25;;;;;;;2.23;0.60;;;8.80;99.90;;;;;;5022906;28;20237;-71
2021/03/16 12:31:51;;;;;;;1.80;0.97;;;8.80;99.90;;;;;;5021830;28;20722;-68
2021/03/16 12:34:16;;;;;;;0.37;0.37;;;9.00;99.90;;;;;;5031376;28;20203;-68
2021/03/16 12:36:42;;;;;;;1.63;0.67;;;9.10;99.90;;;;;;5031095;28;20187;-70
2021/03/16 12:39:08;;;;;;;0.50;0.50;;;9.20;99.90;;;;;;5023070;28;20187;-70
2021/03/16 12:41:34;;;;;;;0.87;0.47;;;9.20;99.90;;;;;;5030405;28;20614;-67
2021/03/16 12:44:00;;;;;;;1.47;0.60;;;9.00;99.90;;;;;;5022871;28;20211;-68
2021/03/16 12:46:27;;;;;;;1.50;0.90;;;8.70;99.90;;;;;;5024828;28;20682;-72
2021/03/16 12:48:53;;;;;;;0.67;0.50;;;8.20;99.90;;;;;;5027218;28;20187;-69
2021/03/16 12:51:19;;;;;;;0.83;0.83;;;8.00;99.90;;;;;;5031918;28;20193;-68
2021/03/16 12:53:44;;;;;;;1.30;0.77;;;7.80;99.90;;;;;;5024633;28;20246;-69
2021/03/16 12:56:14;;;;;;;2.23;0.70;;;8.10;99.90;;;;;;5026831;28;20662;-67
2021/03/16 12:58:40;;;;;;;2.07;0.70;;;8.30;99.90;;;;;;5027446;28;20248;-69
2021/03/16 13:01:07;;;;;;;1.90;0.40;;;8.40;99.90;;;;;;5029038;28;20650;-69